CheckWX is a tool to help pilots better visualize weather data.  It is not intended as a substitute for an official pre-flight weather briefing.

15:17:52 UTC

KCRP METAR
Corpus Christi International Airport
Corpus Christi, Texas, USA
Current

27 mins ago

KCRP 261451Z 15015KT 10SM FEW024 SCT028 BKN037 29/22 A3003 RMK AO2 SLP167 T02890222 51016
Observed
May-26 @ 14:51 UTC
Wind
  • 150° at 15 KTS
Visibility
10 SM
Flight Rules
VFR
Cloud Levels
  • Few at 2,400' AGL
  • Scattered at 2,800' AGL
  • Broken at 3,700' AGL
Temperature
29°C / 84°F
Dewpoint
22°C / 72°F
Heat Index
32°C / 89°F
Humidity
66%
Altimeter
30.03" Hg
Pressure
1016.92 hPa
Previous

57 mins ago

KCRP 261421Z 16015KT 10SM FEW022 SCT028 BKN037 28/23 A3002 RMK AO2 T02830228
Observed
May-26 @ 14:21 UTC
Wind
  • 160° at 15 KTS
Visibility
10 SM
Flight Rules
VFR
Cloud Levels
  • Few at 2,200' AGL
  • Scattered at 2,800' AGL
  • Broken at 3,700' AGL
Temperature
28°C / 82°F
Dewpoint
23°C / 73°F
Heat Index
31°C / 87°F
Humidity
74%
Altimeter
30.02" Hg
Pressure
1016.62 hPa
Previous

1 hour ago

KCRP 261351Z 14015KT 10SM FEW018 BKN024 BKN036 28/23 A3002 RMK AO2 SLP163 T02830228
Observed
May-26 @ 13:51 UTC
Wind
  • 140° at 15 KTS
Visibility
10 SM
Flight Rules
MVFR
Cloud Levels
  • Few at 1,800' AGL
  • Broken at 2,400' AGL
  • Broken at 3,600' AGL
Temperature
28°C / 82°F
Dewpoint
23°C / 73°F
Heat Index
31°C / 87°F
Humidity
74%
Altimeter
30.02" Hg
Pressure
1016.62 hPa